createdAt,value
2019-05-15T00:00:38.639Z,27.40
2019-05-15T00:03:42.960Z,27.30
2019-05-15T00:06:48.559Z,27.70
2019-05-15T00:09:52.772Z,27.30
2019-05-15T00:12:59.635Z,27.50
2019-05-15T00:16:03.489Z,27.50
2019-05-15T00:19:08.696Z,27.70
2019-05-15T00:22:12.703Z,28.00
2019-05-15T00:25:18.682Z,28.20
2019-05-15T00:28:22.263Z,27.80
2019-05-15T00:31:26.192Z,28.10
2019-05-15T00:34:30.062Z,28.40
2019-05-15T00:37:34.123Z,28.50
2019-05-15T00:40:39.495Z,28.20
2019-05-15T00:43:43.830Z,28.50
2019-05-15T00:46:48.803Z,28.40
2019-05-15T00:50:09.039Z,28.60
2019-05-15T00:53:14.142Z,28.80
2019-05-15T00:56:19.464Z,28.90
2019-05-15T00:59:26.789Z,28.90
2019-05-15T01:02:29.196Z,29.10
2019-05-15T01:05:33.457Z,29.00
2019-05-15T01:08:39.363Z,29.00
2019-05-15T01:11:43.430Z,29.30
2019-05-15T01:14:49.024Z,29.30
2019-05-15T01:18:01.150Z,29.50
2019-05-15T01:21:05.226Z,29.30
2019-05-15T01:24:09.403Z,29.60
2019-05-15T01:27:13.220Z,29.40
2019-05-15T01:30:17.994Z,29.50
2019-05-15T01:33:23.077Z,29.40
2019-05-15T01:36:28.710Z,29.90
2019-05-15T01:39:32.752Z,30.50
2019-05-15T01:42:38.618Z,30.40
2019-05-15T01:45:42.370Z,30.50
2019-05-15T01:48:46.482Z,30.60
2019-05-15T01:51:50.799Z,30.50
2019-05-15T01:54:54.661Z,30.60
2019-05-15T01:57:58.423Z,30.80
2019-05-15T02:01:09.190Z,30.60
2019-05-15T02:04:13.028Z,31.20
2019-05-15T02:07:18.668Z,30.90
2019-05-15T02:10:23.050Z,31.30
2019-05-15T02:13:28.268Z,31.40
2019-05-15T02:16:33.190Z,31.40
2019-05-15T02:19:41.433Z,31.60
2019-05-15T02:22:45.801Z,31.70
2019-05-15T02:25:49.790Z,32.00
2019-05-15T02:29:00.511Z,32.70
2019-05-15T02:32:01.705Z,32.80
2019-05-15T02:35:09.529Z,33.30
2019-05-15T02:38:15.393Z,33.20
2019-05-15T02:41:19.481Z,33.40
2019-05-15T02:44:22.905Z,33.60
2019-05-15T02:47:29.096Z,33.70
2019-05-15T02:50:39.230Z,33.70
2019-05-15T02:53:43.258Z,34.20
2019-05-15T02:56:49.504Z,34.00
2019-05-15T02:59:53.185Z,35.20
2019-05-15T03:03:00.142Z,34.80
2019-05-15T03:06:03.466Z,34.70
2019-05-15T03:09:09.456Z,34.90
2019-05-15T03:12:12.862Z,35.10
2019-05-15T03:15:19.464Z,35.90
2019-05-15T03:18:23.349Z,35.80
2019-05-15T03:21:29.529Z,35.40
2019-05-15T03:24:33.691Z,35.40
2019-05-15T03:27:39.618Z,35.80
2019-05-15T03:31:12.147Z,35.60
2019-05-15T03:33:54.130Z,35.70
2019-05-15T03:36:55.919Z,35.20
2019-05-15T03:39:59.942Z,35.50
2019-05-15T03:43:04.264Z,35.50
2019-05-15T03:46:12.715Z,35.70
2019-05-15T03:49:19.905Z,35.60
2019-05-15T03:52:23.091Z,35.30
2019-05-15T03:55:29.573Z,35.60
2019-05-15T03:58:32.785Z,36.00
2019-05-15T04:01:42.943Z,36.10
2019-05-15T04:04:42.470Z,35.40
2019-05-15T04:07:49.468Z,35.90
2019-05-15T04:10:51.926Z,35.80
2019-05-15T04:13:55.749Z,34.90
2019-05-15T04:16:59.946Z,34.50
2019-05-15T04:20:03.951Z,34.60
2019-05-15T04:23:10.128Z,34.30
2019-05-15T04:26:13.932Z,33.90
2019-05-15T04:29:19.486Z,34.20
2019-05-15T04:32:23.261Z,33.90
2019-05-15T04:35:28.974Z,33.70
2019-05-15T04:38:34.053Z,33.30
2019-05-15T04:41:39.237Z,33.50
2019-05-15T04:44:43.576Z,32.90
2019-05-15T04:47:49.807Z,33.00
2019-05-15T04:50:53.326Z,32.90
2019-05-15T04:53:58.662Z,32.80
2019-05-15T04:57:02.674Z,32.40
2019-05-15T05:00:09.728Z,32.90
2019-05-15T05:03:15.361Z,32.40
2019-05-15T05:06:19.614Z,32.50
2019-05-15T05:09:23.597Z,32.90
2019-05-15T05:12:28.968Z,31.50
2019-05-15T05:15:32.998Z,31.40
2019-05-15T05:18:41.400Z,31.60
2019-05-15T05:21:42.490Z,31.60
2019-05-15T05:24:47.801Z,32.00
2019-05-15T05:27:51.970Z,30.60
2019-05-15T05:30:58.826Z,31.00
2019-05-15T05:34:02.712Z,30.00
2019-05-15T05:37:07.822Z,30.30
2019-05-15T05:40:12.384Z,29.60
2019-05-15T05:43:18.250Z,29.40
2019-05-15T05:46:23.919Z,29.00
2019-05-15T05:49:30.141Z,28.80
2019-05-15T05:52:33.826Z,28.60
2019-05-15T05:55:38.468Z,28.00
2019-05-15T05:58:42.332Z,27.80
2019-05-15T06:01:48.395Z,27.50
2019-05-15T06:04:51.562Z,27.60
2019-05-15T06:07:55.278Z,27.20
2019-05-15T06:10:59.020Z,26.70
2019-05-15T06:14:02.756Z,26.60
2019-05-15T06:17:08.377Z,26.60
2019-05-15T06:20:15.518Z,27.00
2019-05-15T06:23:23.778Z,26.20
2019-05-15T06:26:24.957Z,26.10
2019-05-15T06:29:28.624Z,26.10
2019-05-15T06:32:32.301Z,25.20
2019-05-15T06:35:36.310Z,26.30
2019-05-15T06:38:40.009Z,25.20
2019-05-15T06:41:43.665Z,23.60
2019-05-15T06:44:48.369Z,22.10
2019-05-15T06:47:52.296Z,20.40
2019-05-15T06:50:57.994Z,19.30
2019-05-15T06:54:04.039Z,18.70
2019-05-15T06:57:09.048Z,19.90
2019-05-15T07:00:13.229Z,18.10
2019-05-15T07:03:24.693Z,16.90
2019-05-15T07:06:22.645Z,15.80
2019-05-15T07:09:28.412Z,15.20
2019-05-15T07:12:31.692Z,14.00
2019-05-15T07:15:35.420Z,13.80
2019-05-15T07:18:39.322Z,14.20
2019-05-15T07:21:42.998Z,14.30
2019-05-15T07:24:47.809Z,14.30
2019-05-15T07:27:51.762Z,14.70
2019-05-15T07:30:55.505Z,13.80
2019-05-15T07:33:59.959Z,14.50
2019-05-15T07:37:03.812Z,14.70
2019-05-15T07:40:08.578Z,14.60
2019-05-15T07:43:12.433Z,13.30
2019-05-15T07:46:18.401Z,13.10
2019-05-15T07:49:21.902Z,12.60
2019-05-15T07:52:25.602Z,11.90
2019-05-15T07:55:29.733Z,12.30
2019-05-15T07:58:33.592Z,12.30
2019-05-15T08:01:38.603Z,11.80
2019-05-15T08:04:42.518Z,12.00
2019-05-15T08:07:48.768Z,12.20
2019-05-15T08:10:51.989Z,11.80
2019-05-15T08:13:58.008Z,11.50
2019-05-15T08:17:01.234Z,11.10
2019-05-15T08:20:09.038Z,11.50
2019-05-15T08:23:12.685Z,11.40
2019-05-15T08:26:17.823Z,11.00
2019-05-15T08:29:21.997Z,11.30
2019-05-15T08:32:27.927Z,11.10
2019-05-15T08:35:31.157Z,11.10
2019-05-15T08:38:34.889Z,11.90
2019-05-15T08:41:39.113Z,11.60
2019-05-15T08:44:43.046Z,10.70
2019-05-15T08:47:49.250Z,10.60
2019-05-15T08:50:52.473Z,9.60
2019-05-15T08:53:58.008Z,9.80
2019-05-15T08:57:01.546Z,10.10
2019-05-15T09:00:09.254Z,9.50
2019-05-15T09:03:12.126Z,9.90
2019-05-15T09:06:18.617Z,9.50
2019-05-15T09:09:21.408Z,8.50
2019-05-15T09:12:25.070Z,8.20
2019-05-15T09:15:29.399Z,7.80
2019-05-15T09:18:34.708Z,7.70
2019-05-15T09:21:39.033Z,7.60
2019-05-15T09:24:42.698Z,7.90
2019-05-15T09:27:48.662Z,6.90
2019-05-15T09:30:52.641Z,7.20
2019-05-15T09:33:58.564Z,7.20
2019-05-15T09:37:01.970Z,7.60
2019-05-15T09:40:08.600Z,8.90
2019-05-15T09:43:12.014Z,8.10
2019-05-15T09:46:18.288Z,7.90
2019-05-15T09:49:21.486Z,8.10
2019-05-15T09:52:25.174Z,8.20
2019-05-15T09:55:29.068Z,9.00
2019-05-15T09:58:32.754Z,8.80
2019-05-15T10:01:39.254Z,8.70
2019-05-15T10:04:41.848Z,9.70
2019-05-15T10:07:45.500Z,9.20
2019-05-15T10:10:49.176Z,9.00
2019-05-15T10:13:52.954Z,8.90
2019-05-15T10:16:58.373Z,9.50
2019-05-15T10:20:02.818Z,9.70
2019-05-15T10:23:08.772Z,9.80
2019-05-15T10:26:14.222Z,9.90
2019-05-15T10:29:19.190Z,9.80
2019-05-15T10:32:22.835Z,9.80
2019-05-15T10:35:31.088Z,9.80
2019-05-15T10:38:32.032Z,9.80
2019-05-15T10:41:35.671Z,9.80
2019-05-15T10:44:39.359Z,9.80
2019-05-15T10:47:42.990Z,9.90
2019-05-15T10:50:46.883Z,10.40
2019-05-15T10:53:50.806Z,11.10
2019-05-15T10:56:54.806Z,11.20
2019-05-15T10:59:58.536Z,10.30
2019-05-15T11:03:02.342Z,10.20
2019-05-15T11:06:06.185Z,10.80
2019-05-15T11:09:10.065Z,10.70
2019-05-15T11:12:13.750Z,11.00
2019-05-15T11:15:18.547Z,10.60
2019-05-15T11:18:22.509Z,10.60
2019-05-15T11:21:26.302Z,10.80
2019-05-15T11:24:32.480Z,10.80
2019-05-15T11:27:35.656Z,11.10
2019-05-15T11:30:39.587Z,11.20
2019-05-15T11:33:43.573Z,11.60
2019-05-15T11:36:48.322Z,11.20
2019-05-15T11:39:52.334Z,11.00
2019-05-15T11:42:56.117Z,10.90
2019-05-15T11:45:59.807Z,10.90
2019-05-15T11:49:03.813Z,11.10
2019-05-15T11:52:08.776Z,11.20
2019-05-15T11:55:12.975Z,11.30
2019-05-15T11:58:18.889Z,10.80
2019-05-15T12:01:22.391Z,10.50
2019-05-15T12:04:33.099Z,10.30
2019-05-15T12:07:31.537Z,10.90
2019-05-15T12:10:35.251Z,10.70
2019-05-15T12:13:38.925Z,11.00
2019-05-15T12:16:42.669Z,11.10
2019-05-15T12:19:55.037Z,10.50
2019-05-15T12:22:51.996Z,10.60
2019-05-15T12:25:56.033Z,10.60
2019-05-15T12:29:01.443Z,10.70
2019-05-15T12:32:21.985Z,9.40
2019-05-15T12:35:11.515Z,9.70
2019-05-15T12:38:15.225Z,10.10
2019-05-15T12:59:51.580Z,9.30
2019-05-15T13:02:55.355Z,9.60
2019-05-15T13:05:59.509Z,10.30
2019-05-15T13:09:03.645Z,11.40
2019-05-15T13:12:08.517Z,12.10
2019-05-15T13:15:12.887Z,12.60
2019-05-15T13:18:17.994Z,12.30
2019-05-15T13:21:22.133Z,12.40
2019-05-15T13:24:28.171Z,13.60
2019-05-15T13:27:31.330Z,13.60
2019-05-15T13:30:40.342Z,14.20
2019-05-15T13:33:41.041Z,16.30
2019-05-15T13:36:45.065Z,17.20
2019-05-15T13:39:48.984Z,18.40
2019-05-15T13:42:55.186Z,19.40
2019-05-15T13:45:59.261Z,20.80
2019-05-15T13:49:02.996Z,21.20
2019-05-15T13:52:08.513Z,22.40
2019-05-15T13:55:12.454Z,22.40
2019-05-15T13:58:16.109Z,22.40
2019-05-15T14:01:20.003Z,24.20
2019-05-15T14:04:24.076Z,23.40
2019-05-15T14:07:33.125Z,23.60
2019-05-15T14:10:33.372Z,23.30
2019-05-15T14:13:39.249Z,24.00
2019-05-15T14:16:43.318Z,23.40
2019-05-15T14:19:48.589Z,24.20
2019-05-15T14:22:52.631Z,24.20
2019-05-15T14:25:58.908Z,22.90
2019-05-15T14:29:02.150Z,23.20
2019-05-15T14:32:08.165Z,23.00
2019-05-15T14:35:11.952Z,21.70
2019-05-15T14:38:15.727Z,20.60
2019-05-15T14:41:19.776Z,20.40
2019-05-15T14:44:23.617Z,20.10
2019-05-15T14:47:29.540Z,19.60
2019-05-15T14:50:32.917Z,19.50
2019-05-15T14:53:38.590Z,19.30
2019-05-15T14:56:42.007Z,19.50
2019-05-15T14:59:48.660Z,18.30
2019-05-15T15:02:51.961Z,18.60
2019-05-15T15:05:58.116Z,18.40
2019-05-15T15:09:01.479Z,18.40
2019-05-15T15:12:08.018Z,18.80
2019-05-15T15:15:11.667Z,18.50
2019-05-15T15:18:15.514Z,18.90
2019-05-15T15:21:22.070Z,18.00
2019-05-15T15:24:24.699Z,18.20
2019-05-15T15:27:28.380Z,18.70
2019-05-15T15:30:33.091Z,18.80
2019-05-15T15:33:39.107Z,19.00
2019-05-15T15:36:42.816Z,18.30
2019-05-15T15:39:48.211Z,18.80
2019-05-15T15:42:52.053Z,19.10
2019-05-15T15:45:58.000Z,18.50
2019-05-15T15:49:01.328Z,18.30
2019-05-15T15:52:05.117Z,18.40
2019-05-15T15:55:09.316Z,18.60
2019-05-15T15:58:13.352Z,18.40
2019-05-15T16:01:18.571Z,19.00
2019-05-15T16:04:22.478Z,18.80
2019-05-15T16:07:28.219Z,18.70
2019-05-15T16:10:31.700Z,18.60
2019-05-15T16:13:35.493Z,18.50
2019-05-15T16:16:39.240Z,18.90
2019-05-15T16:19:43.160Z,18.60
2019-05-15T16:22:48.567Z,18.80
2019-05-15T16:25:52.520Z,18.40
2019-05-15T16:28:58.028Z,18.60
2019-05-15T16:32:01.706Z,18.30
2019-05-15T16:35:08.077Z,18.90
2019-05-15T16:38:11.056Z,18.80
2019-05-15T16:41:14.830Z,19.10
2019-05-15T16:44:18.564Z,19.60
2019-05-15T16:47:22.407Z,19.90
2019-05-15T16:50:28.824Z,20.00
2019-05-15T16:53:32.642Z,20.40
2019-05-15T16:56:37.405Z,20.30
2019-05-15T16:59:42.160Z,20.70
2019-05-15T17:02:48.082Z,21.20
2019-05-15T17:05:51.309Z,21.40
2019-05-15T17:08:55.197Z,22.10
2019-05-15T17:11:59.012Z,21.90
2019-05-15T17:15:02.856Z,22.40
2019-05-15T17:18:08.750Z,22.20
2019-05-15T17:21:12.220Z,23.00
2019-05-15T17:24:16.495Z,23.20
2019-05-15T17:27:20.401Z,23.70
2019-05-15T17:30:26.054Z,24.50
2019-05-15T17:33:30.170Z,24.80
2019-05-15T17:36:34.214Z,25.00
2019-05-15T17:39:41.609Z,25.40
2019-05-15T17:42:43.804Z,25.90
2019-05-15T17:45:48.340Z,26.20
2019-05-15T17:48:55.570Z,26.60
2019-05-15T17:51:58.195Z,28.50
2019-05-15T17:55:02.081Z,30.70
2019-05-15T17:58:05.821Z,32.40
2019-05-15T18:01:09.846Z,35.00
2019-05-15T18:04:13.630Z,34.70
2019-05-15T18:07:17.368Z,35.40
2019-05-15T18:10:21.429Z,35.90
2019-05-15T18:13:25.213Z,36.30
2019-05-15T18:16:29.182Z,36.30
2019-05-15T18:19:33.204Z,37.00
2019-05-15T18:22:37.908Z,37.40
2019-05-15T18:25:41.713Z,37.50
2019-05-15T18:28:45.899Z,38.70
2019-05-15T18:31:49.601Z,37.70
2019-05-15T18:34:53.292Z,37.50
2019-05-15T18:37:58.990Z,37.10
2019-05-15T18:41:03.871Z,36.70
2019-05-15T18:44:07.680Z,35.90
2019-05-15T18:47:11.372Z,35.50
2019-05-15T18:50:15.785Z,35.60
2019-05-15T18:53:19.471Z,35.80
2019-05-15T18:56:23.269Z,36.20
2019-05-15T18:59:27.082Z,35.60
2019-05-15T19:02:30.876Z,36.20
2019-05-15T19:05:34.657Z,35.10
2019-05-15T19:08:38.818Z,35.60
2019-05-15T19:11:45.666Z,34.90
2019-05-15T19:14:49.621Z,34.70
2019-05-15T19:17:53.767Z,35.00
2019-05-15T19:20:58.561Z,34.10
2019-05-15T19:24:02.618Z,34.70
2019-05-15T19:27:07.997Z,34.60
2019-05-15T19:30:13.015Z,34.60
2019-05-15T19:33:22.538Z,35.00
2019-05-15T19:36:22.254Z,35.10
2019-05-15T19:39:27.976Z,34.40
2019-05-15T19:42:31.671Z,34.00
2019-05-15T19:45:35.474Z,34.50
2019-05-15T19:48:40.004Z,33.90
2019-05-15T19:51:45.078Z,34.30
2019-05-15T19:54:48.797Z,34.30
2019-05-15T19:57:52.748Z,34.10
2019-05-15T20:00:56.828Z,34.20
2019-05-15T20:04:00.820Z,34.00
2019-05-15T20:07:04.681Z,33.60
2019-05-15T20:10:10.136Z,34.00
2019-05-15T20:13:13.814Z,33.30
2019-05-15T20:16:21.078Z,33.00
2019-05-15T20:19:23.331Z,32.90
2019-05-15T20:22:28.409Z,32.30
2019-05-15T20:25:32.414Z,32.20
2019-05-15T20:28:38.734Z,31.70
2019-05-15T20:31:41.597Z,31.50
2019-05-15T20:34:45.274Z,31.70
2019-05-15T20:37:49.037Z,31.30
2019-05-15T20:40:52.869Z,31.40
2019-05-15T20:43:58.262Z,31.40
2019-05-15T20:47:02.610Z,32.30
2019-05-15T20:50:08.512Z,31.20
2019-05-15T20:53:12.310Z,31.30
2019-05-15T20:56:16.174Z,31.20
2019-05-15T20:59:20.253Z,31.30
2019-05-15T21:02:24.078Z,30.70
2019-05-15T21:05:27.914Z,30.40
2019-05-15T21:08:32.261Z,30.20
2019-05-15T21:11:39.491Z,29.90
2019-05-15T21:14:41.437Z,29.90
2019-05-15T21:17:54.554Z,29.70
2019-05-15T21:20:50.897Z,29.80
2019-05-15T21:23:54.633Z,29.80
2019-05-15T21:26:58.425Z,29.70
2019-05-15T21:30:02.512Z,29.40
2019-05-15T21:33:08.575Z,29.30
2019-05-15T21:36:12.273Z,29.40
2019-05-15T21:39:16.380Z,29.40
2019-05-15T21:42:20.180Z,29.30
2019-05-15T21:45:23.866Z,29.30
2019-05-15T21:48:28.733Z,28.60
2019-05-15T21:51:32.763Z,29.10
2019-05-15T21:54:38.178Z,29.30
2019-05-15T21:57:42.825Z,29.30
2019-05-15T22:00:50.993Z,29.10
2019-05-15T22:03:55.002Z,29.00
2019-05-15T22:06:58.921Z,28.80
2019-05-15T22:10:03.411Z,29.00
2019-05-15T22:13:07.276Z,29.30
2019-05-15T22:16:11.237Z,29.00
2019-05-15T22:19:15.397Z,29.40
2019-05-15T22:22:19.281Z,29.00
2019-05-15T22:25:23.109Z,28.70
2019-05-15T22:28:28.172Z,28.70
2019-05-15T22:31:32.349Z,29.30
2019-05-15T22:34:36.081Z,29.00
2019-05-15T22:37:41.634Z,29.00
2019-05-15T22:40:45.765Z,29.30
2019-05-15T22:43:49.637Z,29.30
2019-05-15T22:46:54.399Z,29.30
2019-05-15T22:49:59.060Z,30.00
2019-05-15T22:53:03.109Z,29.50
2019-05-15T22:56:09.142Z,29.60
2019-05-15T22:59:12.288Z,29.30
2019-05-15T23:02:17.992Z,31.10
2019-05-15T23:05:27.799Z,32.00
2019-05-15T23:08:29.010Z,34.20
2019-05-15T23:11:32.682Z,35.70
2019-05-15T23:14:37.974Z,37.00
2019-05-15T23:17:41.762Z,37.40
2019-05-15T23:20:47.875Z,38.30
2019-05-15T23:23:51.725Z,39.30
2019-05-15T23:26:55.746Z,40.40
2019-05-15T23:29:59.420Z,40.30
2019-05-15T23:33:03.214Z,41.10
2019-05-15T23:36:06.937Z,41.90
2019-05-15T23:39:10.753Z,41.80
2019-05-15T23:42:14.713Z,42.70
2019-05-15T23:45:18.477Z,43.70
2019-05-15T23:48:22.480Z,43.30
2019-05-15T23:51:27.947Z,43.80
2019-05-15T23:54:31.829Z,43.80
2019-05-15T23:57:35.553Z,43.90
